sim
Sign-in with your pilot id or email,
or register
Callsign
Passwort

Schedule Details

Flight Number: DLH1617
Departure: Warsaw Chopin Airport (EPWA) at 05:05
Arrival: Munich Airport (EDDM) at 06:45
Route: Lufthansa Passenger Schedule. Enter filed route here before submitting Pirep.

Weather Information
Getting current METAR information for EPWA 250200Z 13005KT 6000 MIFG NSC 13/13 Q1006 BECMG 5000 BR
Getting current METAR information for EDDM 250150Z 27005KT 9999 -RA FEW011 SCT040 13/12 Q1002 TEMPO RA BKN008

Schedule Frequency

Route Map